createdAt,value
2018-11-13T00:01:10.783Z,8.57
2018-11-13T00:03:39.285Z,8.61
2018-11-13T00:06:07.840Z,8.65
2018-11-13T00:08:36.423Z,8.68
2018-11-13T00:11:05.102Z,8.70
2018-11-13T00:13:33.628Z,8.68
2018-11-13T00:16:02.240Z,8.66
2018-11-13T00:18:30.764Z,8.59
2018-11-13T00:20:59.310Z,8.61
2018-11-13T00:23:27.899Z,8.58
2018-11-13T00:25:56.510Z,8.60
2018-11-13T00:28:25.229Z,8.60
2018-11-13T00:30:53.802Z,8.61
2018-11-13T00:33:22.389Z,8.62
2018-11-13T00:35:51.047Z,8.61
2018-11-13T00:38:19.576Z,8.63
2018-11-13T00:40:48.098Z,8.60
2018-11-13T00:43:16.691Z,8.66
2018-11-13T00:45:45.441Z,8.60
2018-11-13T00:48:13.793Z,8.63
2018-11-13T00:50:43.121Z,8.59
2018-11-13T00:53:11.570Z,8.58
2018-11-13T00:55:40.153Z,8.58
2018-11-13T00:58:08.733Z,8.59
2018-11-13T01:00:38.139Z,8.63
2018-11-13T01:03:06.865Z,8.58
2018-11-13T01:05:35.432Z,8.58
2018-11-13T01:08:03.977Z,8.61
2018-11-13T01:10:32.538Z,8.64
2018-11-13T01:13:01.702Z,8.63
2018-11-13T01:15:30.450Z,8.64
2018-11-13T01:17:59.690Z,8.69
2018-11-13T01:20:28.214Z,8.63
2018-11-13T01:22:57.541Z,8.57
2018-11-13T01:25:26.114Z,8.57
2018-11-13T01:27:54.642Z,8.62
2018-11-13T01:30:26.078Z,8.62
2018-11-13T01:32:54.577Z,8.67
2018-11-13T01:35:23.119Z,8.63
2018-11-13T01:37:51.665Z,8.62
2018-11-13T01:40:21.317Z,8.65
2018-11-13T01:42:50.526Z,8.60
2018-11-13T01:45:19.889Z,8.62
2018-11-13T01:47:48.491Z,8.59
2018-11-13T01:50:18.717Z,8.55
2018-11-13T01:52:47.330Z,8.57
2018-11-13T01:55:16.466Z,8.61
2018-11-13T01:57:45.161Z,8.66
2018-11-13T02:00:20.045Z,8.57
2018-11-13T02:02:49.836Z,8.57
2018-11-13T02:05:19.860Z,8.56
2018-11-13T02:07:48.677Z,8.55
2018-11-13T02:10:18.298Z,8.52
2018-11-13T02:12:47.341Z,8.57
2018-11-13T02:15:16.117Z,8.53
2018-11-13T02:17:44.825Z,8.54
2018-11-13T02:20:16.094Z,8.58
2018-11-13T02:22:44.759Z,8.57
2018-11-13T02:25:15.816Z,8.56
2018-11-13T02:27:44.951Z,8.55
2018-11-13T02:30:16.435Z,8.58
2018-11-13T02:32:45.421Z,8.55
2018-11-13T02:35:15.337Z,8.47
2018-11-13T02:37:44.370Z,8.49
2018-11-13T02:40:13.267Z,8.45
2018-11-13T02:42:42.744Z,8.41
2018-11-13T02:45:14.666Z,8.30
2018-11-13T02:47:43.362Z,8.28
2018-11-13T02:50:18.442Z,8.21
2018-11-13T02:52:46.966Z,8.20
2018-11-13T02:55:15.692Z,8.24
2018-11-13T02:57:45.624Z,8.25
2018-11-13T03:00:16.046Z,8.30
2018-11-13T03:02:44.724Z,8.35
2018-11-13T03:05:14.530Z,8.42
2018-11-13T03:07:43.367Z,8.38
2018-11-13T03:10:13.714Z,8.39
2018-11-13T03:12:42.379Z,8.40
2018-11-13T03:15:12.649Z,8.38
2018-11-13T03:17:41.258Z,8.33
2018-11-13T03:20:11.979Z,8.34
2018-11-13T03:22:41.102Z,8.29
2018-11-13T03:25:12.110Z,8.30
2018-11-13T03:27:40.637Z,8.28
2018-11-13T03:30:18.144Z,8.24
2018-11-13T03:32:46.815Z,8.40
2018-11-13T03:35:15.357Z,8.28
2018-11-13T03:37:44.268Z,8.32
2018-11-13T03:40:13.487Z,8.28
2018-11-13T03:42:42.610Z,8.23
2018-11-13T03:45:12.131Z,8.20
2018-11-13T03:47:40.659Z,8.21
2018-11-13T03:50:11.778Z,8.19
2018-11-13T03:52:40.362Z,8.19
2018-11-13T03:55:09.772Z,8.25
2018-11-13T03:57:39.361Z,8.36
2018-11-13T04:00:11.042Z,8.33
2018-11-13T04:02:40.141Z,8.37
2018-11-13T04:05:10.208Z,8.37
2018-11-13T04:07:42.139Z,8.31
2018-11-13T04:10:12.247Z,8.26
2018-11-13T04:12:41.227Z,8.21
2018-11-13T04:15:11.662Z,8.19
2018-11-13T04:17:40.330Z,8.28
2018-11-13T04:20:10.581Z,8.22
2018-11-13T04:22:39.358Z,8.27
2018-11-13T04:25:08.430Z,8.32
2018-11-13T04:27:37.009Z,8.33
2018-11-13T04:30:06.226Z,8.32
2018-11-13T04:32:34.800Z,8.29
2018-11-13T04:35:03.387Z,8.30
2018-11-13T04:37:32.084Z,8.35
2018-11-13T04:40:00.636Z,8.31
2018-11-13T04:42:29.267Z,8.28
2018-11-13T04:44:57.898Z,8.29
2018-11-13T04:47:26.466Z,8.32
2018-11-13T04:49:55.005Z,8.28
2018-11-13T04:52:23.545Z,8.24
2018-11-13T04:54:52.152Z,8.35
2018-11-13T04:57:20.794Z,8.41
2018-11-13T04:59:49.310Z,8.31
2018-11-13T05:02:17.880Z,8.31
2018-11-13T05:04:46.450Z,8.19
2018-11-13T05:07:14.989Z,8.24
2018-11-13T05:09:44.283Z,8.28
2018-11-13T05:12:12.858Z,8.19
2018-11-13T05:14:41.514Z,8.13
2018-11-13T05:17:10.091Z,8.07
2018-11-13T05:19:38.677Z,8.08
2018-11-13T05:22:07.466Z,8.05
2018-11-13T05:24:36.096Z,8.06
2018-11-13T05:27:04.869Z,8.09
2018-11-13T05:29:33.447Z,8.12
2018-11-13T05:32:01.934Z,8.17
2018-11-13T05:34:30.478Z,8.14
2018-11-13T05:36:59.026Z,8.22
2018-11-13T05:39:27.565Z,8.28
2018-11-13T05:41:56.104Z,8.42
2018-11-13T05:44:24.692Z,8.46
2018-11-13T05:46:53.799Z,8.53
2018-11-13T05:49:22.350Z,8.60
2018-11-13T05:51:51.500Z,8.62
2018-11-13T05:54:20.208Z,8.65
2018-11-13T05:56:48.718Z,8.57
2018-11-13T05:59:17.262Z,8.64
2018-11-13T06:01:46.564Z,8.59
2018-11-13T06:04:15.073Z,8.59
2018-11-13T06:06:43.655Z,8.60
2018-11-13T06:09:12.679Z,8.50
2018-11-13T06:11:41.307Z,8.47
2018-11-13T06:14:09.893Z,8.43
2018-11-13T06:16:38.410Z,8.55
2018-11-13T06:19:07.206Z,8.59
2018-11-13T06:21:36.568Z,8.64
2018-11-13T06:24:05.629Z,8.70
2018-11-13T06:26:35.437Z,8.75
2018-11-13T06:29:03.979Z,8.68
2018-11-13T06:31:32.654Z,8.56
2018-11-13T06:34:01.234Z,8.47
2018-11-13T06:36:29.782Z,8.52
2018-11-13T06:38:58.455Z,8.51
2018-11-13T06:41:27.064Z,8.52
2018-11-13T06:43:55.885Z,8.57
2018-11-13T06:46:24.461Z,8.53
2018-11-13T06:48:53.104Z,8.58
2018-11-13T06:51:22.210Z,8.64
2018-11-13T06:54:02.218Z,8.64
2018-11-13T06:56:30.807Z,8.73
2018-11-13T06:58:59.323Z,8.75
2018-11-13T07:01:27.854Z,8.80
2018-11-13T07:03:56.390Z,8.85
2018-11-13T07:06:24.914Z,8.82
2018-11-13T07:08:53.442Z,9.02
2018-11-13T07:11:22.978Z,9.00
2018-11-13T07:13:52.126Z,8.99
2018-11-13T07:16:20.635Z,8.95
2018-11-13T07:18:49.183Z,8.95
2018-11-13T07:21:18.135Z,9.06
2018-11-13T07:23:46.862Z,9.09
2018-11-13T07:26:15.363Z,9.17
2018-11-13T07:28:44.038Z,9.17
2018-11-13T07:31:13.304Z,9.17
2018-11-13T07:33:42.362Z,9.28
2018-11-13T07:36:11.015Z,9.29
2018-11-13T07:38:39.575Z,9.29
2018-11-13T07:41:08.208Z,9.24
2018-11-13T07:43:36.731Z,9.38
2018-11-13T07:46:05.594Z,9.33
2018-11-13T07:48:34.099Z,9.40
2018-11-13T07:51:02.630Z,9.50
2018-11-13T07:53:31.232Z,9.47
2018-11-13T07:55:59.827Z,9.43
2018-11-13T07:58:28.424Z,9.51
2018-11-13T08:00:57.125Z,9.51
2018-11-13T08:03:38.626Z,9.65
2018-11-13T08:06:07.551Z,9.65
2018-11-13T08:08:36.120Z,9.64
2018-11-13T08:11:05.636Z,9.63
2018-11-13T08:13:34.876Z,9.74
2018-11-13T08:16:03.363Z,9.77
2018-11-13T08:18:32.932Z,9.84
2018-11-13T08:21:01.666Z,9.87
2018-11-13T08:23:30.966Z,9.89
2018-11-13T08:26:00.112Z,9.93
2018-11-13T08:28:28.904Z,10.13
2018-11-13T08:30:57.420Z,10.20
2018-11-13T08:33:25.932Z,10.30
2018-11-13T08:35:54.506Z,10.35
2018-11-13T08:38:23.087Z,10.20
2018-11-13T08:40:51.682Z,10.18
2018-11-13T08:43:20.921Z,10.13
2018-11-13T08:45:49.500Z,10.07
2018-11-13T08:48:18.108Z,10.07
2018-11-13T08:50:46.768Z,10.13
2018-11-13T08:53:15.878Z,10.07
2018-11-13T08:55:44.417Z,10.22
2018-11-13T08:58:13.426Z,10.27
2018-11-13T09:00:41.996Z,10.13
2018-11-13T09:03:11.129Z,10.26
2018-11-13T09:05:39.658Z,10.24
2018-11-13T09:08:08.178Z,10.15
2018-11-13T09:10:38.616Z,10.18
2018-11-13T09:13:07.355Z,10.26
2018-11-13T09:15:35.894Z,10.31
2018-11-13T09:18:04.429Z,10.48
2018-11-13T09:20:33.040Z,10.71
2018-11-13T09:23:01.673Z,10.87
2018-11-13T09:25:30.199Z,10.76
2018-11-13T09:27:58.764Z,10.66
2018-11-13T09:30:27.463Z,10.81
2018-11-13T09:32:55.963Z,10.89
2018-11-13T09:35:24.570Z,11.01
2018-11-13T09:37:53.156Z,11.30
2018-11-13T09:40:21.976Z,11.37
2018-11-13T09:42:51.846Z,11.45
2018-11-13T09:45:20.525Z,11.51
2018-11-13T09:47:49.105Z,11.57
2018-11-13T09:50:19.044Z,11.65
2018-11-13T09:52:48.856Z,11.57
2018-11-13T09:55:18.588Z,11.55
2018-11-13T09:57:47.854Z,11.59
2018-11-13T10:00:20.747Z,11.49
2018-11-13T10:02:55.116Z,11.40
2018-11-13T10:05:23.492Z,11.30
2018-11-13T10:07:52.631Z,11.25
2018-11-13T10:10:21.185Z,11.12
2018-11-13T10:12:49.754Z,11.20
2018-11-13T10:15:20.150Z,11.17
2018-11-13T10:17:48.755Z,11.12
2018-11-13T10:20:17.880Z,10.98
2018-11-13T10:22:49.715Z,11.16
2018-11-13T10:25:19.006Z,11.26
2018-11-13T10:27:47.579Z,11.25
2018-11-13T10:30:17.855Z,11.16
2018-11-13T10:32:46.885Z,11.16
2018-11-13T10:35:17.637Z,11.26
2018-11-13T10:37:47.462Z,11.40
2018-11-13T10:40:17.875Z,11.44
2018-11-13T10:42:47.063Z,11.45
2018-11-13T10:45:17.198Z,11.55
2018-11-13T10:47:46.879Z,11.49
2018-11-13T10:50:17.238Z,11.37
2018-11-13T10:52:45.719Z,11.37
2018-11-13T10:55:14.395Z,11.67
2018-11-13T10:57:43.446Z,11.98
2018-11-13T11:00:19.336Z,12.15
2018-11-13T11:03:57.088Z,12.17
2018-11-13T11:06:25.681Z,11.97
2018-11-13T11:08:54.204Z,11.77
2018-11-13T11:11:22.822Z,11.96
2018-11-13T11:13:51.543Z,12.10
2018-11-13T11:16:20.791Z,12.16
2018-11-13T11:18:49.330Z,12.20
2018-11-13T11:21:18.055Z,12.03
2018-11-13T11:23:46.733Z,12.21
2018-11-13T11:26:15.962Z,12.20
2018-11-13T11:28:44.543Z,12.42
2018-11-13T11:31:13.128Z,12.40
2018-11-13T11:33:42.635Z,12.54
2018-11-13T11:36:11.213Z,12.50
2018-11-13T11:38:39.834Z,12.62
2018-11-13T11:41:08.342Z,12.36
2018-11-13T11:43:36.962Z,12.35
2018-11-13T11:46:05.898Z,12.33
2018-11-13T11:48:34.470Z,12.62
2018-11-13T11:51:02.986Z,12.40
2018-11-13T11:53:31.670Z,12.39
2018-11-13T11:56:01.254Z,12.46
2018-11-13T11:58:29.871Z,12.45
2018-11-13T12:00:58.468Z,12.61
2018-11-13T12:03:27.044Z,12.41
2018-11-13T12:05:55.611Z,12.44
2018-11-13T12:08:24.164Z,12.65
2018-11-13T12:10:52.762Z,12.38
2018-11-13T12:13:21.327Z,12.26
2018-11-13T12:15:50.522Z,12.28
2018-11-13T12:18:19.019Z,12.11
2018-11-13T12:20:47.630Z,12.21
2018-11-13T12:23:17.131Z,12.41
2018-11-13T12:25:45.713Z,12.45
2018-11-13T12:28:14.419Z,12.35
2018-11-13T12:30:42.942Z,12.21
2018-11-13T12:33:11.545Z,12.00
2018-11-13T12:35:40.064Z,12.08
2018-11-13T12:38:08.644Z,12.19
2018-11-13T12:40:37.203Z,12.28
2018-11-13T12:43:06.243Z,12.26
2018-11-13T12:45:35.008Z,12.09
2018-11-13T12:48:03.578Z,12.25
2018-11-13T12:50:37.432Z,12.10
2018-11-13T12:53:05.985Z,11.98
2018-11-13T12:55:35.119Z,11.93
2018-11-13T12:58:03.643Z,12.01
2018-11-13T13:00:32.204Z,11.94
2018-11-13T13:03:00.800Z,11.92
2018-11-13T13:05:29.428Z,11.92
2018-11-13T13:07:58.124Z,11.94
2018-11-13T13:10:26.690Z,11.87
2018-11-13T13:12:55.216Z,11.79
2018-11-13T13:15:23.766Z,11.89
2018-11-13T13:17:52.523Z,12.03
2018-11-13T13:20:22.663Z,12.08
2018-11-13T13:22:51.627Z,12.17
2018-11-13T13:25:21.383Z,11.97
2018-11-13T13:27:50.184Z,11.88
2018-11-13T13:30:21.191Z,11.74
2018-11-13T13:32:50.063Z,11.85
2018-11-13T13:35:56.070Z,11.98
2018-11-13T13:38:24.666Z,12.04
2018-11-13T13:40:54.611Z,12.15
2018-11-13T13:43:24.028Z,12.10
2018-11-13T13:45:52.668Z,12.19
2018-11-13T13:48:21.589Z,12.15
2018-11-13T13:50:50.306Z,12.01
2018-11-13T13:53:19.609Z,11.91
2018-11-13T13:55:48.666Z,11.74
2018-11-13T13:58:17.709Z,11.62
2018-11-13T14:00:46.405Z,11.54
2018-11-13T14:03:15.360Z,11.44
2018-11-13T14:05:44.640Z,11.36
2018-11-13T14:08:14.011Z,11.34
2018-11-13T14:10:42.816Z,11.43
2018-11-13T14:13:11.714Z,11.41
2018-11-13T14:15:40.665Z,11.45
2018-11-13T14:18:09.286Z,11.57
2018-11-13T14:20:37.915Z,11.57
2018-11-13T14:23:06.765Z,11.54
2018-11-13T14:25:35.355Z,11.52
2018-11-13T14:28:03.969Z,11.54
2018-11-13T14:30:34.906Z,11.62
2018-11-13T14:33:08.839Z,11.70
2018-11-13T14:35:37.440Z,11.77
2018-11-13T14:38:07.288Z,11.72
2018-11-13T14:40:37.355Z,11.73
2018-11-13T14:43:06.439Z,11.64
2018-11-13T14:45:35.087Z,11.64
2018-11-13T14:48:04.301Z,11.69
2018-11-13T14:50:34.211Z,11.66
2018-11-13T14:53:02.924Z,11.64
2018-11-13T14:55:33.769Z,11.48
2018-11-13T14:58:04.352Z,11.34
2018-11-13T15:00:34.135Z,11.24
2018-11-13T15:03:03.715Z,11.21
2018-11-13T15:05:33.188Z,11.33
2018-11-13T15:08:05.107Z,11.41
2018-11-13T15:10:41.479Z,11.21
2018-11-13T15:13:10.568Z,11.01
2018-11-13T15:15:39.161Z,10.96
2018-11-13T15:18:08.798Z,10.96
2018-11-13T15:20:37.738Z,10.94
2018-11-13T15:23:07.419Z,10.98
2018-11-13T15:25:35.994Z,10.91
2018-11-13T15:28:04.929Z,10.95
2018-11-13T15:30:34.624Z,10.91
2018-11-13T15:33:05.119Z,10.96
2018-11-13T15:35:40.314Z,10.84
2018-11-13T15:38:09.130Z,10.78
2018-11-13T15:40:37.692Z,10.77
2018-11-13T15:43:06.648Z,10.70
2018-11-13T15:45:35.298Z,10.52
2018-11-13T15:48:05.784Z,10.50
2018-11-13T15:50:35.220Z,10.51
2018-11-13T15:53:03.756Z,10.56
2018-11-13T15:55:32.345Z,10.45
2018-11-13T15:58:01.780Z,10.47
2018-11-13T16:00:31.939Z,10.47
2018-11-13T16:03:02.081Z,10.35
2018-11-13T16:05:35.103Z,10.27
2018-11-13T16:08:05.434Z,10.21
2018-11-13T16:10:33.987Z,10.16
2018-11-13T16:13:02.725Z,10.10
2018-11-13T16:15:32.057Z,10.07
2018-11-13T16:18:01.842Z,9.95
2018-11-13T16:20:30.391Z,9.92
2018-11-13T16:22:58.948Z,9.87
2018-11-13T16:25:28.077Z,9.92
2018-11-13T16:27:56.588Z,9.98
2018-11-13T16:30:26.567Z,9.92
2018-11-13T16:32:55.256Z,10.01
2018-11-13T16:35:25.530Z,10.07
2018-11-13T16:37:55.157Z,10.02
2018-11-13T16:40:26.408Z,9.98
2018-11-13T16:42:54.970Z,10.04
2018-11-13T16:45:24.962Z,10.11
2018-11-13T16:47:53.972Z,10.11
2018-11-13T16:50:25.543Z,9.94
2018-11-13T16:52:54.141Z,9.87
2018-11-13T16:55:28.836Z,9.80
2018-11-13T16:57:58.202Z,9.78
2018-11-13T17:00:26.856Z,9.79
2018-11-13T17:02:55.594Z,9.84
2018-11-13T17:05:25.765Z,9.83
2018-11-13T17:07:54.214Z,9.73
2018-11-13T17:10:24.345Z,9.80
2018-11-13T17:12:53.307Z,9.88
2018-11-13T17:15:22.978Z,9.96
2018-11-13T17:17:52.789Z,10.08
2018-11-13T17:20:22.062Z,10.14
2018-11-13T17:22:51.020Z,10.17
2018-11-13T17:25:20.974Z,10.32
2018-11-13T17:27:50.760Z,10.26
2018-11-13T17:30:22.971Z,10.16
2018-11-13T17:32:52.026Z,10.14
2018-11-13T17:35:23.136Z,10.03
2018-11-13T17:37:52.544Z,10.03
2018-11-13T17:40:26.427Z,9.88
2018-11-13T17:42:56.294Z,9.79
2018-11-13T17:45:26.395Z,9.78
2018-11-13T17:47:54.952Z,9.72
2018-11-13T17:50:26.129Z,9.63
2018-11-13T17:52:54.762Z,9.63
2018-11-13T17:55:23.860Z,9.59
2018-11-13T17:57:54.067Z,9.66
2018-11-13T18:00:30.141Z,9.80
2018-11-13T18:02:58.758Z,9.83
2018-11-13T18:05:27.815Z,9.77
2018-11-13T18:07:57.698Z,9.60
2018-11-13T18:10:26.895Z,9.58
2018-11-13T18:12:55.538Z,9.52
2018-11-13T18:15:25.296Z,9.62
2018-11-13T18:17:54.024Z,9.57
2018-11-13T18:20:24.082Z,9.47
2018-11-13T18:22:52.657Z,9.31
2018-11-13T18:25:21.472Z,9.18
2018-11-13T18:27:51.945Z,9.18
2018-11-13T18:30:25.919Z,9.22
2018-11-13T18:32:55.312Z,9.08
2018-11-13T18:35:25.242Z,9.12
2018-11-13T18:37:54.655Z,9.07
2018-11-13T18:40:23.810Z,9.14
2018-11-13T18:42:53.118Z,9.16
2018-11-13T18:45:24.282Z,9.15
2018-11-13T18:47:52.885Z,9.08
2018-11-13T18:50:27.746Z,9.04
2018-11-13T18:52:56.482Z,8.93
2018-11-13T18:55:25.283Z,8.92
2018-11-13T18:57:53.849Z,9.16
2018-11-13T19:00:25.327Z,9.35
2018-11-13T19:02:54.946Z,9.27
2018-11-13T19:05:25.151Z,9.04
2018-11-13T19:07:54.392Z,9.19
2018-11-13T19:10:29.741Z,9.06
2018-11-13T19:12:59.312Z,9.05
2018-11-13T19:15:29.426Z,8.95
2018-11-13T19:17:58.005Z,8.82
2018-11-13T19:20:27.212Z,8.72
2018-11-13T19:22:55.672Z,8.72
2018-11-13T19:25:25.702Z,8.80
2018-11-13T19:27:55.141Z,8.83
2018-11-13T19:30:23.941Z,8.80
2018-11-13T19:32:52.686Z,8.68
2018-11-13T19:35:21.820Z,8.68
2018-11-13T19:37:50.475Z,8.63
2018-11-13T19:40:20.538Z,8.57
2018-11-13T19:42:49.979Z,8.65
2018-11-13T19:45:19.787Z,8.71
2018-11-13T19:47:48.453Z,8.94
2018-11-13T19:50:18.959Z,9.00
2018-11-13T19:52:47.675Z,9.14
2018-11-13T19:55:17.018Z,9.10
2018-11-13T19:57:46.456Z,9.07
2018-11-13T20:00:23.502Z,8.99
2018-11-13T20:02:53.030Z,9.00
2018-11-13T20:05:21.871Z,9.08
2018-11-13T20:07:50.482Z,9.08
2018-11-13T20:10:20.967Z,9.04
2018-11-13T20:12:50.606Z,9.07
2018-11-13T20:15:19.819Z,8.97
2018-11-13T20:17:48.482Z,8.81
2018-11-13T20:20:19.177Z,8.73
2018-11-13T20:22:48.611Z,8.58
2018-11-13T20:25:18.782Z,8.57
2018-11-13T20:27:47.351Z,8.53
2018-11-13T20:30:21.020Z,8.46
2018-11-13T20:32:49.833Z,8.36
2018-11-13T20:35:18.635Z,8.28
2018-11-13T20:37:48.121Z,8.29
2018-11-13T20:40:18.133Z,8.16
2018-11-13T20:42:47.943Z,8.16
2018-11-13T20:45:16.516Z,8.18
2018-11-13T20:47:45.204Z,8.03
2018-11-13T20:50:22.898Z,7.94
2018-11-13T20:52:51.531Z,7.97
2018-11-13T20:55:20.167Z,7.95
2018-11-13T20:57:48.670Z,7.88
2018-11-13T21:00:19.945Z,7.85
2018-11-13T21:02:48.766Z,7.75
2018-11-13T21:05:18.267Z,7.66
2018-11-13T21:07:46.885Z,7.60
2018-11-13T21:10:20.719Z,7.55
2018-11-13T21:12:49.822Z,7.63
2018-11-13T21:15:19.778Z,7.66
2018-11-13T21:17:48.539Z,7.74
2018-11-13T21:20:18.229Z,7.77
2018-11-13T21:22:47.062Z,7.68
2018-11-13T21:25:17.150Z,7.58
2018-11-13T21:27:45.770Z,7.55
2018-11-13T21:30:18.007Z,7.49
2018-11-13T21:32:47.202Z,7.45
2018-11-13T21:35:16.194Z,7.47
2018-11-13T21:37:46.154Z,7.51
2018-11-13T21:40:15.965Z,7.37
2018-11-13T21:42:45.734Z,7.37
2018-11-13T21:45:14.932Z,7.37
2018-11-13T21:47:44.518Z,7.38
2018-11-13T21:50:16.634Z,7.41
2018-11-13T21:52:45.271Z,7.59
2018-11-13T21:55:15.936Z,7.43
2018-11-13T21:57:45.226Z,7.40
2018-11-13T22:00:16.429Z,7.42
2018-11-13T22:02:46.678Z,7.39
2018-11-13T22:05:15.801Z,7.33
2018-11-13T22:07:44.838Z,7.28
2018-11-13T22:10:13.416Z,7.35
2018-11-13T22:12:42.759Z,7.33
2018-11-13T22:15:19.103Z,7.27
2018-11-13T22:17:47.731Z,7.26
2018-11-13T22:20:17.231Z,7.30
2018-11-13T22:22:46.217Z,7.17
2018-11-13T22:25:17.057Z,7.19
2018-11-13T22:27:46.886Z,7.17
2018-11-13T22:30:17.390Z,7.29
2018-11-13T22:32:46.472Z,7.18
2018-11-13T22:35:15.510Z,7.18
2018-11-13T22:37:44.172Z,7.10
2018-11-13T22:40:22.282Z,7.09
2018-11-13T22:42:51.073Z,7.03
2018-11-13T22:45:21.777Z,7.04
2018-11-13T22:47:50.682Z,7.06
2018-11-13T22:50:26.933Z,6.99
2018-11-13T22:52:55.845Z,6.97
2018-11-13T22:55:24.428Z,7.03
2018-11-13T22:57:54.632Z,7.10
2018-11-13T23:00:25.820Z,7.06
2018-11-13T23:02:55.508Z,7.06
2018-11-13T23:05:24.096Z,7.02
2018-11-13T23:07:52.634Z,6.92
2018-11-13T23:10:21.244Z,6.87
2018-11-13T23:12:49.803Z,6.78
2018-11-13T23:15:20.421Z,6.71
2018-11-13T23:17:48.962Z,6.68
2018-11-13T23:20:18.933Z,6.69
2018-11-13T23:22:48.066Z,6.63
2018-11-13T23:25:17.858Z,6.64
2018-11-13T23:27:47.432Z,6.62
2018-11-13T23:30:18.824Z,6.70
2018-11-13T23:32:47.480Z,6.77
2018-11-13T23:35:17.182Z,6.77
2018-11-13T23:37:46.995Z,6.74
2018-11-13T23:40:17.431Z,6.68
2018-11-13T23:42:46.543Z,6.76
2018-11-13T23:45:16.143Z,6.77
2018-11-13T23:47:45.225Z,6.71
2018-11-13T23:50:14.022Z,6.70
2018-11-13T23:52:43.261Z,6.68
2018-11-13T23:55:12.834Z,6.62
2018-11-13T23:57:42.155Z,6.67
